»·PEaware :: N733TR KGJT-KTEX

N733TR :: KGJT-KTEX

FLIGHT INFORMATION

Flight Status: Arrived
Operator: Privately registered:
United States
More flights under this callsign
Pilot: Jonathan B. (787)
Aircraft: CIRRUS SR-22 TURBO
(S22T)
More flights by this aircraft type
Origin: KGJT Grand Junction Regl
United States
Destination: KTEX Telluride Regl
United States
More flights between these airports :: More routes between these airports
Route: MONMT2 JNC V382 ETL
File this flight plan on PilotEdge
Remarks:
Altitude:
(Current/Filed)
15,000ft
Speed:
(Current/Filed)
170kts
Departed: 29-Oct-23 02:45 PM
Arrived: 29-Oct-23 03:29 PM
Distance/Time
Traveled:
76nm/0:43
Distance/Time
To Go:
Arrived

Flight Plot

Page will automatically refresh every two minutes.

Flight plan parsing failed; only flown route is shown


Map Options




Map Legend


Flown Route
Filed Route
Departure Airport
Arrival Airport
Navaid (VOR, NDB)
Fix

Horizontal Profiles

Position Reports

Time Latitude Longitude Heading Altitude Ground
Speed
29-Oct-23 14:31 39.124882 -108.531708 35 4825ft 0kts
29-Oct-23 14:32 39.124882 -108.531708 35 4825ft 0kts
29-Oct-23 14:33 39.124882 -108.531708 35 4825ft 0kts
29-Oct-23 14:34 39.124882 -108.531708 35 4825ft 0kts
29-Oct-23 14:35 39.125024 -108.531604 38 4826ft 2kts
29-Oct-23 14:36 39.125801 -108.530442 65 4837ft 5kts
29-Oct-23 14:37 39.123563 -108.526006 126 4843ft 12kts
29-Oct-23 14:38 39.121182 -108.521622 123 4843ft 16kts
29-Oct-23 14:39 39.119064 -108.517779 127 4846ft 20kts
29-Oct-23 14:40 39.118294 -108.516420 115 4846ft 0kts
29-Oct-23 14:41 39.118294 -108.516420 115 4846ft 0kts
29-Oct-23 14:42 39.118294 -108.516420 115 4846ft 0kts
29-Oct-23 14:43 39.118294 -108.516420 115 4846ft 0kts
29-Oct-23 14:44 39.118038 -108.515886 119 4846ft 13kts
29-Oct-23 14:45 39.121937 -108.520714 306 4903ft 88kts
29-Oct-23 14:46 39.137328 -108.559562 302 5799ft 130kts
29-Oct-23 14:47 39.154113 -108.602145 300 6855ft 133kts
29-Oct-23 14:48 39.158287 -108.649336 249 7337ft 150kts
29-Oct-23 14:49 39.141325 -108.698252 248 7979ft 150kts
29-Oct-23 14:49 39.127253 -108.740266 248 8458ft 152kts
29-Oct-23 14:50 39.103752 -108.783802 196 9002ft 157kts
29-Oct-23 14:52 39.053896 -108.788656 156 9734ft 154kts
29-Oct-23 14:53 39.014238 -108.768382 152 10311ft 155kts
29-Oct-23 14:54 38.973706 -108.746876 152 10872ft 158kts
29-Oct-23 14:54 38.939517 -108.728735 154 11362ft 160kts
29-Oct-23 14:55 38.897940 -108.706731 154 11910ft 163kts
29-Oct-23 14:56 38.855657 -108.684348 154 12450ft 163kts
29-Oct-23 14:58 38.805796 -108.658022 154 12829ft 166kts
29-Oct-23 14:58 38.770135 -108.639205 154 13107ft 166kts
29-Oct-23 14:59 38.726886 -108.616424 154 13434ft 169kts
29-Oct-23 15:00 38.683433 -108.593543 155 13967ft 166kts
29-Oct-23 15:01 38.640418 -108.570923 155 14499ft 167kts
29-Oct-23 15:02 38.596873 -108.548029 155 14910ft 169kts
29-Oct-23 15:03 38.551764 -108.524376 156 15041ft 183kts
29-Oct-23 15:04 38.503997 -108.499373 156 15040ft 186kts
29-Oct-23 15:05 38.455609 -108.473976 156 15055ft 194kts
29-Oct-23 15:06 38.405465 -108.447802 156 15056ft 189kts
29-Oct-23 15:07 38.357064 -108.422629 156 15077ft 186kts
29-Oct-23 15:08 38.308740 -108.397492 156 15082ft 187kts
29-Oct-23 15:09 38.260650 -108.372543 156 15098ft 184kts
29-Oct-23 15:10 38.210446 -108.346506 157 14285ft 199kts
29-Oct-23 15:11 38.160540 -108.320699 156 13835ft 188kts
29-Oct-23 15:12 38.112755 -108.295975 156 13477ft 183kts
29-Oct-23 15:13 38.065494 -108.271553 156 13138ft 182kts
29-Oct-23 15:14 38.032111 -108.230983 109 13053ft 169kts
29-Oct-23 15:15 38.015470 -108.177578 107 13085ft 155kts
29-Oct-23 15:16 38.000028 -108.127222 107 13027ft 155kts
29-Oct-23 15:17 37.988453 -108.072930 101 12027ft 138kts
29-Oct-23 15:18 37.979716 -108.031122 101 11288ft 126kts
29-Oct-23 15:19 37.971673 -107.993036 99 10491ft 103kts
29-Oct-23 15:20 37.964676 -107.959909 99 9854ft 95kts
29-Oct-23 15:21 37.952814 -107.926062 115 9773ft 108kts
29-Oct-23 15:22 37.939734 -107.894063 104 10149ft 99kts
29-Oct-23 15:23 37.944101 -107.865598 344 9584ft 110kts
29-Oct-23 15:24 37.945643 -107.899388 264 8862ft 120kts
29-Oct-23 15:25 37.963536 -107.923727 284 9894ft 133kts
29-Oct-23 15:26 37.952151 -107.936016 66 9439ft 118kts
29-Oct-23 15:27 37.953096 -107.905236 106 9031ft 41kts
29-Oct-23 15:28 37.952916 -107.904559 128 9034ft 0kts

Navigation Log

Ident Type
Flight plan parsing failed, navigation log unavailable